Portada
METAR-TAF:

METAR-TAF

Aeroports :

Wallis, França

latitud: 13-14S, longitud: 176-10W, altitud: 23 m

Observació

L'informe es va fer fa 23 minuts, a les 10:00 UTC
Vent 5 kt del Est/Sud-Est, variant entre Est i Sud-Est
Temperatura 27°C
Humitat 84%
Pressió 1013 hPa
Visibilitat 10 km o més

METAR: NLWW 051000Z AUTO 11005KT 080V140 9999 SCT016/// SCT021/// 27/24 Q1013 NOSIG

Hora: 22:23 (10:23 UTC)

Pronòstic

L'informe es va fer fa 5 hores i 23 minuts, a les 05:00 UTC
Pronòstic vàlid del 05 a les 06 UTC al 06 a les 06 UTC
Vent 10 kt del Est
Visibilitat 10 km o més
Núvols disperses a una alçada de 2500 ft
Probabilitat 40% :
Temporalment
l' 05 a les 12 UTC al 06 a les 06 UTC
Cel ennuvolat a una alçada de 1400 ft
Núvols disperses a una alçada de 2000 ft, Cumulus congestus.
xàfecs de pluja

TAF: NLWW 050500Z 0506/0606 09010KT 9999 SCT025 PROB40 TEMPO 0512/0606 SHRA BKN014 SCT020TCU

Observacions i pronòstics meteorològics de més de 4000 aeroports (METAR i TAF).

Les estacions disponibles són els punts grocs i vermells al mapa.

Posi el ratolí al punt desitjat per veure el nom de l'estació.

Feu clic per veure les observacions i els pronòstics meteorològics.

Per canviar el mapa: feu clic els botons verds amb una creu de color negre per apropar; al botó verd amb un guió per allunyar la imatge; o en les fletxes verdes per a mapes adjacents.


METAR-TAF: